Worland Municipal Airport
KWRL : now visible

Airfield :











YOU CAN JOIN US ON...

 
LOGIN :

Register | Disclaimer

   EN    FR    IT 

 









Legend :    VFR   Marginal VFR   IFR   Intensive IFR   Very Intensive IFR
Visi :
Ceiling :
>= 8 km
>= 3000ft
5 to 8 km
1000 to 3000 ft
1500m to 5 km
500 to 1000 ft
800 to 1500m
200 to 500 ft
< 800m
< 200 ft
Symbols :   Thunderstorms  Fog  Heavy snow  Heavy precipitations  Wind > 20 kt






- Airport Elevation : 4227 ft
- IATA code : WRL


KWRL - Worland Municipal

CURRENT METAR :
  • 180553Z AUTO 14007KT 10SM FEW050 SCT070 M11/M12 A3013 RMK AO2 SLP256 T11061122 11006 21106 52012

EXPIRED METARs :
  • 180453Z AUTO 04004KT 10SM SCT070 BKN085 M10/M12 A3012 RMK AO2 SLP254 T11001122
  • 180353Z AUTO 16007KT 10SM BKN060 OVC075 M07/M11 A3009 RMK AO2 SLP244 T10671106

TAF KWRL
Valid from the 18 at 06:00 until the 19 at 06:00 UTC


180520Z 1806/1906 VRB05KT P6SM SCT040 SCT090
FM181100 VRB05KT P6SM FEW100 SCT200



MET'MAP, your aeronautical weather chart ! - Copyright ORBIFLY December 2007 - Disclaimer

ORBIFLY MET'MAP TEAM :

Programming & Development : Alexandra Zaïnal
Concept & original design : Baudouin d'Aumeries
Assistance for programming : Marc-Olivier Méhu
Technical & hardware support : Manuel Goepfert

Contact : metmap@orbifly.com




SOURCES & CREDITS :

   NOAA       Earth
Advisory